X  Luk Metar data     LYNI Nis Airport
Temperatur
17°C Temperatur
16°C Duggpunkt
94% Fugtighed



Vind
1 M/S
3 MPT
5 KM/T
3 KNOB



290°
VNV
Nuværende forhold

Regn Regn
Tryk 1013.88 (hPa) - 29.94 (inHg)
Sigt 6 (mil) - 9.7 (km)
Lufthavn
Lufthavnskode LYNI

Lokation: Nis Airport
Afstand: 14 (km)

Metar:
LYNI 190100Z 29003KT 9999 RA BKN040 17/16 Q1014 NOSIG

Tid: 19-05-2024 03:00 CEST